METAR Data

Data at: 2316 UTC 26 Feb 2020

METAR for:KLCI (Laconia Muni, NH, US)
Text:KLCI 262256Z AUTO 06006KT 10SM SCT041 OVC050 06/M01 A2998 RMK AO2 SLP155 T00561006
Temperature: 5.6°C ( 42°F)
Dewpoint: -0.6°C ( 31°F) [RH = 64%]
Pressure (altimeter):29.98 inches Hg (1015.3 mb) [Sea level pressure: 1015.5 mb]
Winds:from the ENE (60 degrees) at 7 MPH (6 knots; 3.1 m/s)
Visibility:10 or more sm (16+ km)
Ceiling:5000 feet AGL
Clouds: scattered clouds at 4100 feet AGL, overcast cloud deck at 5000 feet AGL
QC Flag:automated observation with no human augmentation